createdAt,value
2022-09-07T00:02:39.488Z,5.82
2022-09-07T00:05:43.210Z,5.90
2022-09-07T00:08:44.949Z,6.40
2022-09-07T00:11:46.748Z,6.00
2022-09-07T00:14:48.430Z,5.72
2022-09-07T00:17:50.289Z,6.15
2022-09-07T00:21:01.922Z,6.43
2022-09-07T00:24:03.798Z,6.07
2022-09-07T00:27:05.612Z,6.10
2022-09-07T00:30:10.032Z,6.18
2022-09-07T00:33:11.781Z,5.97
2022-09-07T00:36:13.528Z,5.55
2022-09-07T00:39:15.385Z,5.85
2022-09-07T00:42:20.750Z,5.68
2022-09-07T00:45:22.695Z,5.93
2022-09-07T00:48:31.401Z,5.65
2022-09-07T00:51:40.992Z,5.32
2022-09-07T00:54:56.662Z,5.28
2022-09-07T00:57:59.397Z,4.93
2022-09-07T01:01:01.195Z,5.00
2022-09-07T01:04:03.689Z,5.20
2022-09-07T01:07:05.952Z,5.65
2022-09-07T01:10:09.012Z,5.20
2022-09-07T01:13:10.766Z,5.60
2022-09-07T01:16:40.396Z,5.15
2022-09-07T01:19:42.238Z,4.95
2022-09-07T01:23:05.903Z,5.32
2022-09-07T01:26:35.578Z,5.00
2022-09-07T01:29:57.632Z,5.15
2022-09-07T01:32:59.253Z,4.93
2022-09-07T01:36:19.045Z,5.05
2022-09-07T01:39:28.685Z,5.03
2022-09-07T01:42:41.287Z,5.28
2022-09-07T01:45:45.647Z,5.15
2022-09-07T01:48:51.223Z,5.35
2022-09-07T01:52:03.358Z,5.60
2022-09-07T01:55:21.817Z,5.32
2022-09-07T01:58:46.778Z,5.25
2022-09-07T02:02:07.528Z,5.30
2022-09-07T02:05:16.561Z,5.50
2022-09-07T02:08:21.140Z,4.88
2022-09-07T02:11:36.547Z,5.13
2022-09-07T02:14:43.225Z,5.25
2022-09-07T02:17:58.899Z,4.97
2022-09-07T02:21:02.905Z,4.90
2022-09-07T02:24:12.130Z,4.80
2022-09-07T02:27:19.342Z,4.75
2022-09-07T02:30:21.013Z,4.60
2022-09-07T02:33:22.736Z,4.75
2022-09-07T02:36:29.381Z,4.80
2022-09-07T02:39:31.437Z,5.10
2022-09-07T02:42:34.566Z,4.70
2022-09-07T02:46:15.330Z,4.97
2022-09-07T02:49:54.227Z,5.03
2022-09-07T02:53:17.207Z,4.93
2022-09-07T02:56:29.702Z,5.25
2022-09-07T02:59:54.884Z,4.72
2022-09-07T03:03:24.364Z,4.82
2022-09-07T03:06:32.184Z,4.80
2022-09-07T03:09:38.793Z,4.65
2022-09-07T03:12:46.272Z,4.10
2022-09-07T03:15:51.310Z,4.22
2022-09-07T03:18:55.364Z,4.10
2022-09-07T03:21:57.066Z,4.97
2022-09-07T03:24:58.858Z,4.43
2022-09-07T03:28:00.630Z,4.30
2022-09-07T03:31:03.026Z,4.22
2022-09-07T03:34:05.164Z,4.82
2022-09-07T03:37:06.788Z,4.90
2022-09-07T03:40:13.337Z,4.72
2022-09-07T03:43:15.045Z,5.00
2022-09-07T03:46:19.413Z,5.00
2022-09-07T03:49:21.124Z,5.03
2022-09-07T03:52:22.713Z,5.03
2022-09-07T03:55:24.393Z,4.93
2022-09-07T03:58:25.999Z,5.32
2022-09-07T04:01:28.176Z,5.15
2022-09-07T04:04:29.831Z,5.75
2022-09-07T04:07:31.449Z,4.97
2022-09-07T04:10:38.219Z,5.07
2022-09-07T04:13:40.253Z,5.07
2022-09-07T04:16:42.097Z,5.30
2022-09-07T04:19:43.770Z,5.10
2022-09-07T04:22:50.452Z,4.72
2022-09-07T04:25:55.403Z,4.93
2022-09-07T04:28:57.693Z,4.70
2022-09-07T04:31:59.334Z,5.10
2022-09-07T04:35:00.981Z,5.43
2022-09-07T04:38:02.645Z,5.57
2022-09-07T04:41:08.237Z,5.80
2022-09-07T04:44:16.076Z,5.90
2022-09-07T04:47:18.546Z,5.07
2022-09-07T04:50:20.137Z,5.50
2022-09-07T04:53:21.755Z,5.15
2022-09-07T04:56:24.117Z,5.55
2022-09-07T04:59:25.827Z,5.43
2022-09-07T05:02:27.489Z,5.60
2022-09-07T05:05:29.142Z,6.15
2022-09-07T05:08:35.489Z,5.60
2022-09-07T05:11:37.084Z,5.50
2022-09-07T05:14:38.680Z,5.30
2022-09-07T05:17:40.286Z,5.70
2022-09-07T05:20:42.518Z,6.45
2022-09-07T05:23:45.652Z,5.95
2022-09-07T05:26:47.283Z,7.10
2022-09-07T05:30:05.097Z,5.97
2022-09-07T05:33:10.436Z,5.97
2022-09-07T05:36:12.144Z,5.55
2022-09-07T05:39:13.811Z,6.43
2022-09-07T05:42:15.398Z,6.13
2022-09-07T05:45:17.278Z,6.30
2022-09-07T05:48:18.956Z,6.38
2022-09-07T05:51:20.616Z,6.30
2022-09-07T05:54:22.246Z,5.43
2022-09-07T05:57:23.944Z,5.68
2022-09-07T06:00:34.120Z,6.57
2022-09-07T06:03:37.722Z,6.35
2022-09-07T06:06:39.420Z,6.20
2022-09-07T06:13:04.258Z,5.38
2022-09-07T06:16:08.043Z,4.95
2022-09-07T06:19:10.557Z,5.30
2022-09-07T06:22:13.283Z,5.50
2022-09-07T06:25:15.057Z,5.28
2022-09-07T06:28:16.737Z,6.72
2022-09-07T06:31:20.704Z,5.85
2022-09-07T06:34:23.078Z,6.70
2022-09-07T06:37:24.982Z,6.20
2022-09-07T06:40:26.598Z,6.75
2022-09-07T06:43:28.537Z,6.90
2022-09-07T06:49:51.783Z,7.05
2022-09-07T06:56:17.169Z,6.35
2022-09-07T06:59:18.978Z,6.18
2022-09-07T07:02:20.667Z,6.60
2022-09-07T07:05:22.570Z,5.68
2022-09-07T07:08:26.102Z,5.97
2022-09-07T07:11:27.747Z,5.53
2022-09-07T07:14:33.712Z,5.28
2022-09-07T07:17:36.694Z,5.05
2022-09-07T07:20:40.116Z,5.10
2022-09-07T07:23:42.053Z,4.63
2022-09-07T07:26:48.560Z,4.88
2022-09-07T07:32:52.289Z,4.78
2022-09-07T07:35:54.037Z,5.10
2022-09-07T07:42:03.174Z,4.25
2022-09-07T07:48:31.605Z,4.40
2022-09-07T07:52:49.839Z,4.72
2022-09-07T07:54:54.889Z,4.65
2022-09-07T07:57:56.829Z,4.53
2022-09-07T08:01:04.502Z,3.90
2022-09-07T08:04:06.197Z,4.78
2022-09-07T08:07:11.158Z,4.43
2022-09-07T08:10:13.398Z,4.72
2022-09-07T08:13:16.769Z,4.15
2022-09-07T08:16:19.187Z,3.90
2022-09-07T08:19:20.950Z,3.90
2022-09-07T08:22:25.658Z,3.80
2022-09-07T08:25:28.475Z,3.72
2022-09-07T08:28:32.769Z,3.72
2022-09-07T08:31:38.184Z,3.95
2022-09-07T08:34:40.011Z,3.55
2022-09-07T08:37:41.863Z,3.45
2022-09-07T08:40:44.033Z,3.55
2022-09-07T08:43:53.874Z,3.50
2022-09-07T08:47:07.917Z,3.10
2022-09-07T08:50:12.569Z,3.22
2022-09-07T08:53:17.383Z,4.43
2022-09-07T08:56:33.770Z,3.40
2022-09-07T08:59:54.903Z,3.42
2022-09-07T09:06:37.752Z,3.40
2022-09-07T09:10:19.553Z,3.55
2022-09-07T09:13:39.811Z,3.90
2022-09-07T09:16:46.279Z,4.10
2022-09-07T09:20:57.082Z,3.65
2022-09-07T09:24:20.201Z,3.55
2022-09-07T09:27:22.082Z,3.67
2022-09-07T09:30:24.777Z,3.30
2022-09-07T09:33:33.259Z,3.13
2022-09-07T09:40:09.327Z,3.40
2022-09-07T09:44:12.282Z,3.80
2022-09-07T09:47:45.754Z,3.10
2022-09-07T09:54:20.577Z,3.22
2022-09-07T10:05:32.560Z,3.20
2022-09-07T10:08:41.578Z,2.72
2022-09-07T10:12:05.676Z,2.60
2022-09-07T10:15:24.368Z,3.63
2022-09-07T10:18:33.584Z,3.13
2022-09-07T10:21:52.151Z,4.38
2022-09-07T10:24:56.174Z,3.35
2022-09-07T10:28:24.830Z,3.80
2022-09-07T10:31:39.644Z,7.38
2022-09-07T10:35:11.088Z,3.55
2022-09-07T10:38:30.783Z,3.63
2022-09-07T10:41:52.590Z,3.17
2022-09-07T10:45:07.506Z,3.42
2022-09-07T10:48:24.387Z,3.03
2022-09-07T10:51:53.767Z,2.95
2022-09-07T10:54:55.748Z,2.90
2022-09-07T10:58:15.699Z,2.90
2022-09-07T11:01:45.178Z,2.72
2022-09-07T11:05:01.252Z,2.90
2022-09-07T11:08:20.652Z,1.80
2022-09-07T11:15:37.934Z,1.77
2022-09-07T11:22:45.219Z,1.40
2022-09-07T11:26:01.991Z,1.50
2022-09-07T11:29:29.366Z,1.35
2022-09-07T11:32:42.596Z,1.40
2022-09-07T11:35:52.644Z,1.30
2022-09-07T11:39:05.020Z,1.30
2022-09-07T11:46:05.028Z,1.33
2022-09-07T11:49:19.929Z,1.45
2022-09-07T11:52:54.220Z,1.40
2022-09-07T11:56:25.836Z,1.40
2022-09-07T12:00:01.700Z,1.35
2022-09-07T12:03:47.179Z,1.13
2022-09-07T12:07:10.126Z,1.13
2022-09-07T12:10:14.748Z,1.02
2022-09-07T12:13:28.606Z,1.00
2022-09-07T12:16:48.694Z,1.10
2022-09-07T12:20:19.784Z,1.10
2022-09-07T12:23:29.225Z,1.27
2022-09-07T12:26:34.161Z,1.15
2022-09-07T12:29:36.581Z,1.23
2022-09-07T12:32:55.636Z,1.20
2022-09-07T12:36:00.821Z,1.15
2022-09-07T12:39:18.630Z,1.20
2022-09-07T12:42:36.927Z,1.10
2022-09-07T12:45:39.065Z,1.17
2022-09-07T12:48:52.904Z,1.20
2022-09-07T12:52:17.099Z,1.35
2022-09-07T12:56:19.192Z,1.10
2022-09-07T12:59:49.050Z,1.10
2022-09-07T13:07:04.333Z,1.15
2022-09-07T13:10:26.737Z,1.10
2022-09-07T13:17:28.738Z,1.30
2022-09-07T13:20:34.847Z,1.10
2022-09-07T13:23:51.413Z,1.13
2022-09-07T13:27:11.406Z,1.10
2022-09-07T13:30:16.655Z,1.10
2022-09-07T13:33:24.469Z,1.17
2022-09-07T13:36:30.564Z,1.10
2022-09-07T13:39:44.726Z,1.00
2022-09-07T13:42:47.307Z,1.10
2022-09-07T13:45:54.962Z,1.15
2022-09-07T13:49:06.862Z,1.08
2022-09-07T13:52:21.378Z,1.13
2022-09-07T13:55:32.575Z,1.08
2022-09-07T13:58:35.869Z,1.20
2022-09-07T14:01:45.258Z,1.20
2022-09-07T14:04:50.966Z,1.17
2022-09-07T14:07:52.654Z,1.10
2022-09-07T14:10:54.362Z,1.58
2022-09-07T14:14:18.853Z,1.05
2022-09-07T14:17:20.872Z,1.15
2022-09-07T14:20:23.601Z,1.10
2022-09-07T14:23:30.121Z,0.98
2022-09-07T14:26:32.007Z,1.10
2022-09-07T14:29:35.848Z,0.90
2022-09-07T14:32:37.663Z,1.10
2022-09-07T14:35:40.602Z,1.02
2022-09-07T14:42:07.642Z,1.00
2022-09-07T14:45:22.586Z,1.00
2022-09-07T14:48:31.491Z,1.00
2022-09-07T14:51:36.836Z,1.00
2022-09-07T14:54:39.794Z,0.98
2022-09-07T14:57:41.433Z,1.25
2022-09-07T15:04:18.780Z,1.00
2022-09-07T15:07:41.329Z,1.10
2022-09-07T15:11:32.934Z,1.10
2022-09-07T15:14:19.347Z,1.10
2022-09-07T15:20:45.053Z,1.00
2022-09-07T15:23:53.937Z,1.02
2022-09-07T15:27:03.446Z,1.20
2022-09-07T15:30:05.862Z,1.00
2022-09-07T15:33:07.515Z,1.00
2022-09-07T15:36:14.009Z,1.10
2022-09-07T15:39:24.996Z,1.10
2022-09-07T15:45:51.271Z,1.20
2022-09-07T15:48:55.005Z,1.15
2022-09-07T15:52:05.079Z,1.10
2022-09-07T15:55:08.812Z,1.33
2022-09-07T15:58:13.433Z,1.23
2022-09-07T16:04:38.756Z,1.33
2022-09-07T16:11:19.705Z,1.30
2022-09-07T16:14:21.408Z,1.38
2022-09-07T16:17:27.188Z,1.27
2022-09-07T16:20:38.314Z,1.35
2022-09-07T16:23:43.152Z,1.30
2022-09-07T16:26:45.964Z,1.30
2022-09-07T16:29:48.154Z,1.30
2022-09-07T16:32:50.899Z,1.20
2022-09-07T16:36:00.093Z,1.40
2022-09-07T16:39:06.485Z,1.30
2022-09-07T16:42:11.321Z,1.42
2022-09-07T16:48:36.198Z,1.30
2022-09-07T16:51:39.756Z,1.58
2022-09-07T16:54:41.848Z,1.40
2022-09-07T17:01:07.394Z,1.60
2022-09-07T17:04:11.435Z,1.40
2022-09-07T17:07:13.341Z,1.50
2022-09-07T17:10:15.005Z,1.50
2022-09-07T17:13:18.803Z,1.45
2022-09-07T17:16:29.727Z,1.70
2022-09-07T17:19:31.765Z,1.70
2022-09-07T17:22:33.675Z,1.85
2022-09-07T17:25:35.304Z,1.70
2022-09-07T17:28:37.894Z,1.90
2022-09-07T17:35:01.231Z,2.00
2022-09-07T17:39:14.283Z,2.10
2022-09-07T17:41:28.167Z,1.80
2022-09-07T17:44:34.767Z,1.90
2022-09-07T17:47:39.929Z,2.00
2022-09-07T17:50:42.503Z,2.17
2022-09-07T17:53:45.580Z,2.00
2022-09-07T17:56:47.706Z,1.90
2022-09-07T18:03:12.852Z,2.20
2022-09-07T18:06:14.750Z,1.85
2022-09-07T18:09:16.917Z,1.63
2022-09-07T18:12:18.512Z,1.92
2022-09-07T18:15:22.133Z,1.98
2022-09-07T18:18:23.776Z,2.28
2022-09-07T18:21:32.629Z,2.50
2022-09-07T18:24:53.009Z,2.40
2022-09-07T18:31:46.438Z,2.15
2022-09-07T18:35:50.857Z,2.50
2022-09-07T18:38:30.652Z,2.38
2022-09-07T18:41:45.482Z,2.60
2022-09-07T18:59:03.618Z,2.60
2022-09-07T19:02:32.196Z,2.95
2022-09-07T19:06:09.673Z,3.20
2022-09-07T19:10:12.361Z,2.95
2022-09-07T19:17:50.362Z,3.17
2022-09-07T19:42:49.930Z,3.38
2022-09-07T19:47:02.735Z,3.67
2022-09-07T19:51:36.801Z,3.80
2022-09-07T19:58:55.518Z,3.70
2022-09-07T20:04:38.711Z,3.95
